createdAt,value
2018-05-01T00:00:03.872Z,12.59
2018-05-01T00:03:07.049Z,12.49
2018-05-01T00:06:10.327Z,12.47
2018-05-01T00:09:13.737Z,12.42
2018-05-01T00:12:17.031Z,12.35
2018-05-01T00:15:21.251Z,12.33
2018-05-01T00:18:24.665Z,12.34
2018-05-01T00:21:27.962Z,12.26
2018-05-01T00:24:31.408Z,12.26
2018-05-01T00:27:34.764Z,12.23
2018-05-01T00:30:38.072Z,12.16
2018-05-01T00:33:41.453Z,11.99
2018-05-01T00:36:44.757Z,12.03
2018-05-01T00:39:48.045Z,11.96
2018-05-01T00:42:52.264Z,11.93
2018-05-01T00:45:55.736Z,11.82
2018-05-01T00:48:58.859Z,11.71
2018-05-01T00:52:02.232Z,11.82
2018-05-01T00:55:05.559Z,11.90
2018-05-01T00:58:08.921Z,11.83
2018-05-01T01:01:16.657Z,11.68
2018-05-01T01:04:20.995Z,11.71
2018-05-01T01:07:24.332Z,11.70
2018-05-01T01:10:27.684Z,11.81
2018-05-01T01:13:30.927Z,11.53
2018-05-01T01:16:34.263Z,11.54
2018-05-01T01:19:37.644Z,11.44
2018-05-01T01:22:40.986Z,11.26
2018-05-01T01:25:44.318Z,11.36
2018-05-01T01:28:47.669Z,11.42
2018-05-01T01:31:51.995Z,11.41
2018-05-01T01:34:57.344Z,11.30
2018-05-01T01:37:59.461Z,11.16
2018-05-01T01:41:01.600Z,11.23
2018-05-01T01:44:03.817Z,11.30
2018-05-01T01:47:05.948Z,11.08
2018-05-01T01:50:08.056Z,10.99
2018-05-01T01:53:10.204Z,10.55
2018-05-01T01:56:13.440Z,10.45
2018-05-01T01:59:15.901Z,10.33
2018-05-01T02:02:18.085Z,10.33
2018-05-01T02:05:21.415Z,10.46
2018-05-01T02:08:23.534Z,10.27
2018-05-01T02:11:25.787Z,10.19
2018-05-01T02:14:27.939Z,10.08
2018-05-01T02:17:30.049Z,10.18
2018-05-01T02:20:32.187Z,10.10
2018-05-01T02:23:35.380Z,10.12
2018-05-01T02:26:37.487Z,10.00
2018-05-01T02:29:39.620Z,10.13
2018-05-01T02:32:41.787Z,10.02
2018-05-01T02:35:43.957Z,9.98
2018-05-01T02:38:46.143Z,9.90
2018-05-01T02:41:48.359Z,9.92
2018-05-01T02:44:50.756Z,9.84
2018-05-01T02:47:52.894Z,9.88
2018-05-01T02:50:55.033Z,9.85
2018-05-01T02:53:57.191Z,9.87
2018-05-01T02:56:59.351Z,9.91
2018-05-01T03:00:01.528Z,9.80
2018-05-01T03:03:03.646Z,9.77
2018-05-01T03:06:05.759Z,9.77
2018-05-01T03:09:07.971Z,9.81
2018-05-01T03:12:10.117Z,9.82
2018-05-01T03:15:12.289Z,9.78
2018-05-01T03:18:14.440Z,9.87
2018-05-01T03:21:16.535Z,9.68
2018-05-01T03:24:18.635Z,9.66
2018-05-01T03:27:21.458Z,9.47
2018-05-01T03:30:23.576Z,9.42
2018-05-01T03:33:25.707Z,9.25
2018-05-01T03:36:27.926Z,9.33
2018-05-01T03:39:30.063Z,9.27
2018-05-01T03:42:32.164Z,9.19
2018-05-01T03:45:34.291Z,9.16
2018-05-01T03:48:36.461Z,9.22
2018-05-01T03:51:38.569Z,9.23
2018-05-01T03:54:40.725Z,9.13
2018-05-01T03:57:42.930Z,9.13
2018-05-01T04:00:45.042Z,9.26
2018-05-01T04:03:47.139Z,9.24
2018-05-01T04:06:49.284Z,9.18
2018-05-01T04:09:51.844Z,9.12
2018-05-01T04:12:54.039Z,9.04
2018-05-01T04:15:56.211Z,9.04
2018-05-01T04:18:58.311Z,8.93
2018-05-01T04:22:01.481Z,9.06
2018-05-01T04:25:03.642Z,8.96
2018-05-01T04:28:05.865Z,9.01
2018-05-01T04:31:07.990Z,9.01
2018-05-01T04:37:36.006Z,9.17
2018-05-01T04:40:38.172Z,9.09
2018-05-01T04:43:40.345Z,9.18
2018-05-01T04:46:42.443Z,9.27
2018-05-01T04:49:44.555Z,9.16
2018-05-01T04:52:46.665Z,9.15
2018-05-01T04:55:48.827Z,9.14
2018-05-01T04:58:51.009Z,9.13
2018-05-01T05:01:53.163Z,9.18
2018-05-01T05:04:55.311Z,9.18
2018-05-01T05:08:04.501Z,9.06
2018-05-01T05:11:06.657Z,9.11
2018-05-01T05:14:09.457Z,9.24
2018-05-01T05:17:11.631Z,9.00
2018-05-01T05:20:13.747Z,9.08
2018-05-01T05:23:15.874Z,9.08
2018-05-01T05:26:18.042Z,9.13
2018-05-01T05:29:20.183Z,9.31
2018-05-01T05:32:22.345Z,9.20
2018-05-01T05:35:30.456Z,9.03
2018-05-01T05:38:32.689Z,8.99
2018-05-01T05:41:34.796Z,9.12
2018-05-01T05:44:36.908Z,9.17
2018-05-01T05:47:39.524Z,9.10
2018-05-01T05:50:41.661Z,9.02
2018-05-01T05:53:43.784Z,9.00
2018-05-01T05:56:46.180Z,9.13
2018-05-01T05:59:48.334Z,9.15
2018-05-01T06:02:50.497Z,9.16
2018-05-01T06:06:10.728Z,9.13
2018-05-01T06:09:12.867Z,9.12
2018-05-01T06:12:14.980Z,9.24
2018-05-01T06:15:19.160Z,9.17
2018-05-01T06:18:21.328Z,9.13
2018-05-01T06:21:23.435Z,9.19
2018-05-01T06:24:25.584Z,9.37
2018-05-01T06:27:27.762Z,9.37
2018-05-01T06:30:29.940Z,9.38
2018-05-01T06:33:32.080Z,9.32
2018-05-01T06:36:34.199Z,9.34
2018-05-01T06:39:37.338Z,9.35
2018-05-01T06:42:39.616Z,9.41
2018-05-01T06:45:42.795Z,9.39
2018-05-01T06:48:44.899Z,9.46
2018-05-01T06:51:47.068Z,9.42
2018-05-01T06:54:53.448Z,9.50
2018-05-01T06:57:55.593Z,9.39
2018-05-01T07:00:57.708Z,9.38
2018-05-01T07:03:59.948Z,9.63
2018-05-01T07:07:02.109Z,9.73
2018-05-01T07:10:04.224Z,9.83
2018-05-01T07:13:06.475Z,10.07
2018-05-01T07:16:08.836Z,10.28
2018-05-01T07:19:10.932Z,10.66
2018-05-01T07:22:13.119Z,10.79
2018-05-01T07:25:15.236Z,10.73
2018-05-01T07:28:17.348Z,10.72
2018-05-01T07:31:19.525Z,10.81
2018-05-01T07:34:21.692Z,10.95
2018-05-01T07:37:23.924Z,11.18
2018-05-01T07:40:26.090Z,11.05
2018-05-01T07:43:28.208Z,10.92
2018-05-01T07:46:30.335Z,10.98
2018-05-01T07:49:32.449Z,11.23
2018-05-01T07:52:34.623Z,11.44
2018-05-01T07:55:36.750Z,11.57
2018-05-01T07:58:39.371Z,11.04
2018-05-01T08:01:42.516Z,10.95
2018-05-01T08:04:44.871Z,10.89
2018-05-01T08:07:48.036Z,10.99
2018-05-01T08:10:50.314Z,10.97
2018-05-01T08:13:52.423Z,10.74
2018-05-01T08:16:54.667Z,10.95
2018-05-01T08:19:56.780Z,10.94
2018-05-01T08:22:58.978Z,10.97
2018-05-01T08:26:01.154Z,10.86
2018-05-01T08:29:03.269Z,10.71
2018-05-01T08:32:05.595Z,10.63
2018-05-01T08:35:07.752Z,10.73
2018-05-01T08:38:09.916Z,10.81
2018-05-01T08:41:12.112Z,10.56
2018-05-01T08:44:14.254Z,10.46
2018-05-01T08:47:16.368Z,10.44
2018-05-01T08:50:18.490Z,10.36
2018-05-01T08:53:20.627Z,10.55
2018-05-01T08:56:22.726Z,10.67
2018-05-01T08:59:24.850Z,10.70
2018-05-01T09:02:26.989Z,10.74
2018-05-01T09:05:29.147Z,11.06
2018-05-01T09:08:31.275Z,11.06
2018-05-01T09:11:33.386Z,11.24
2018-05-01T09:14:35.514Z,11.11
2018-05-01T09:17:37.673Z,11.18
2018-05-01T09:20:39.803Z,11.12
2018-05-01T09:23:42.150Z,11.20
2018-05-01T09:26:44.364Z,11.21
2018-05-01T09:29:46.549Z,11.17
2018-05-01T09:32:49.447Z,11.11
2018-05-01T09:35:51.611Z,11.26
2018-05-01T09:38:53.737Z,11.54
2018-05-01T09:41:57.954Z,11.65
2018-05-01T09:45:00.021Z,11.72
2018-05-01T09:48:03.496Z,11.62
2018-05-01T09:51:05.648Z,11.99
2018-05-01T09:54:09.061Z,12.25
2018-05-01T09:57:12.401Z,12.24
2018-05-01T10:00:20.107Z,12.38
2018-05-01T10:03:23.443Z,12.18
2018-05-01T10:06:27.635Z,12.21
2018-05-01T10:09:31.056Z,12.36
2018-05-01T10:12:34.556Z,12.48
2018-05-01T10:15:37.864Z,12.38
2018-05-01T10:18:41.132Z,12.56
2018-05-01T10:21:45.369Z,12.56
2018-05-01T10:24:48.569Z,12.64
2018-05-01T10:27:51.923Z,12.91
2018-05-01T10:30:55.177Z,12.62
2018-05-01T10:33:58.541Z,12.37
2018-05-01T10:37:01.870Z,12.63
2018-05-01T10:40:05.214Z,12.49
2018-05-01T10:43:08.516Z,12.33
2018-05-01T10:46:12.604Z,12.18
2018-05-01T10:49:18.859Z,12.23
2018-05-01T10:52:22.043Z,12.53
2018-05-01T10:55:25.199Z,12.65
2018-05-01T10:58:28.583Z,12.70
2018-05-01T11:01:31.809Z,12.87
2018-05-01T11:04:34.970Z,12.63
2018-05-01T11:07:38.278Z,12.72
2018-05-01T11:10:41.676Z,13.01
2018-05-01T11:13:45.947Z,12.96
2018-05-01T11:16:49.340Z,13.03
2018-05-01T11:19:52.772Z,13.17
2018-05-01T11:22:58.289Z,13.10
2018-05-01T11:26:03.554Z,12.93
2018-05-01T11:29:06.805Z,12.87
2018-05-01T11:32:10.131Z,13.22
2018-05-01T11:35:13.400Z,13.44
2018-05-01T11:38:16.776Z,13.46
2018-05-01T11:41:20.163Z,13.66
2018-05-01T11:44:23.711Z,13.83
2018-05-01T11:47:26.866Z,13.74
2018-05-01T11:50:30.563Z,13.81
2018-05-01T11:53:34.491Z,13.96
2018-05-01T11:56:37.924Z,14.09
2018-05-01T11:59:41.191Z,14.45
2018-05-01T12:02:44.496Z,14.72
2018-05-01T12:05:47.736Z,14.31
2018-05-01T12:08:51.010Z,14.33
2018-05-01T12:11:54.288Z,14.58
2018-05-01T12:14:57.583Z,14.83
2018-05-01T12:18:02.944Z,14.83
2018-05-01T12:21:06.287Z,14.98
2018-05-01T12:24:09.589Z,14.96
2018-05-01T12:27:12.830Z,15.00
2018-05-01T12:30:16.219Z,15.15
2018-05-01T12:33:19.612Z,14.81
2018-05-01T12:36:22.901Z,14.58
2018-05-01T12:39:26.145Z,14.60
2018-05-01T12:42:30.001Z,15.03
2018-05-01T12:45:34.226Z,15.25
2018-05-01T12:48:37.588Z,15.30
2018-05-01T12:51:40.753Z,15.08
2018-05-01T12:54:44.149Z,15.19
2018-05-01T12:57:47.375Z,15.31
2018-05-01T13:00:50.755Z,15.33
2018-05-01T13:03:54.130Z,15.82
2018-05-01T13:06:57.395Z,15.86
2018-05-01T13:10:01.266Z,15.61
2018-05-01T13:13:04.527Z,15.56
2018-05-01T13:16:08.047Z,15.53
2018-05-01T13:19:11.437Z,15.60
2018-05-01T13:22:14.653Z,15.12
2018-05-01T13:25:17.919Z,14.95
2018-05-01T13:28:21.060Z,15.78
2018-05-01T13:31:25.221Z,15.99
2018-05-01T13:34:28.537Z,15.64
2018-05-01T13:37:32.371Z,15.73
2018-05-01T13:40:35.637Z,16.24
2018-05-01T13:43:40.051Z,16.22
2018-05-01T13:46:43.495Z,15.83
2018-05-01T13:49:46.854Z,15.18
2018-05-01T13:52:50.309Z,15.26
2018-05-01T13:55:53.853Z,15.30
2018-05-01T13:58:57.207Z,15.66
2018-05-01T14:02:00.554Z,15.97
2018-05-01T14:05:03.888Z,15.76
2018-05-01T14:08:07.644Z,16.13
2018-05-01T14:11:10.870Z,16.46
2018-05-01T14:14:14.087Z,16.48
2018-05-01T14:17:17.363Z,16.34
2018-05-01T14:20:20.832Z,16.77
2018-05-01T14:23:24.066Z,16.89
2018-05-01T14:26:27.469Z,16.67
2018-05-01T14:29:30.939Z,16.50
2018-05-01T14:32:34.283Z,16.91
2018-05-01T14:35:38.660Z,16.92
2018-05-01T14:38:42.070Z,17.05
2018-05-01T14:41:45.383Z,17.44
2018-05-01T14:44:48.819Z,16.78
2018-05-01T14:47:52.180Z,17.24
2018-05-01T14:50:55.460Z,17.19
2018-05-01T14:53:58.871Z,17.15
2018-05-01T14:57:02.176Z,17.74
2018-05-01T15:00:05.552Z,17.44
2018-05-01T15:03:09.907Z,17.59
2018-05-01T15:06:13.203Z,17.96
2018-05-01T15:09:16.535Z,17.60
2018-05-01T15:12:19.889Z,17.69
2018-05-01T15:15:23.204Z,17.50
2018-05-01T15:18:26.580Z,16.64
2018-05-01T15:21:29.904Z,16.66
2018-05-01T15:24:33.177Z,16.80
2018-05-01T15:27:36.581Z,17.22
2018-05-01T15:30:41.403Z,17.74
2018-05-01T15:33:44.696Z,17.44
2018-05-01T15:36:48.117Z,17.58
2018-05-01T15:39:51.399Z,17.86
2018-05-01T15:42:54.706Z,18.02
2018-05-01T15:45:57.919Z,18.11
2018-05-01T15:49:01.306Z,17.43
2018-05-01T15:52:04.696Z,17.76
2018-05-01T15:55:09.202Z,17.74
2018-05-01T15:58:12.424Z,17.63
2018-05-01T16:01:15.819Z,17.36
2018-05-01T16:04:19.214Z,17.75
2018-05-01T16:07:22.571Z,17.58
2018-05-01T16:10:25.908Z,17.93
2018-05-01T16:13:29.217Z,17.96
2018-05-01T16:16:32.362Z,18.12
2018-05-01T16:19:35.765Z,18.11
2018-05-01T16:22:40.079Z,17.71
2018-05-01T16:25:43.420Z,17.71
2018-05-01T16:28:46.677Z,17.98
2018-05-01T16:31:49.935Z,17.93
2018-05-01T16:34:53.385Z,17.66
2018-05-01T16:37:56.723Z,17.69
2018-05-01T16:41:00.020Z,17.91
2018-05-01T16:44:03.421Z,17.46
2018-05-01T16:47:06.657Z,17.37
2018-05-01T16:50:11.023Z,17.30
2018-05-01T16:53:14.287Z,17.20
2018-05-01T16:56:17.632Z,16.90
2018-05-01T16:59:22.058Z,16.63
2018-05-01T17:02:25.417Z,16.54
2018-05-01T17:05:28.749Z,16.64
2018-05-01T17:08:32.077Z,16.74
2018-05-01T17:11:35.415Z,16.51
2018-05-01T17:14:38.779Z,16.56
2018-05-01T17:17:41.954Z,16.64
2018-05-01T17:20:45.243Z,16.48
2018-05-01T17:23:48.489Z,16.45
2018-05-01T17:26:51.828Z,16.06
2018-05-01T17:29:55.232Z,15.71
2018-05-01T17:32:58.471Z,15.77
2018-05-01T17:36:01.827Z,15.95
2018-05-01T17:39:06.359Z,15.96
2018-05-01T17:42:10.677Z,15.88
2018-05-01T17:45:14.995Z,15.72
2018-05-01T17:48:18.131Z,15.77
2018-05-01T17:51:21.428Z,15.83
2018-05-01T17:54:24.797Z,15.86
2018-05-01T17:57:28.145Z,15.88
2018-05-01T18:00:31.359Z,15.91
2018-05-01T18:03:34.629Z,15.96
2018-05-01T18:06:38.967Z,15.87
2018-05-01T18:09:42.305Z,15.85
2018-05-01T18:12:46.626Z,15.79
2018-05-01T18:15:49.998Z,15.74
2018-05-01T18:18:53.326Z,15.69
2018-05-01T18:21:56.557Z,15.63
2018-05-01T18:24:59.917Z,15.51
2018-05-01T18:28:03.208Z,15.41
2018-05-01T18:31:06.529Z,15.35
2018-05-01T18:34:11.084Z,15.27
2018-05-01T18:37:14.495Z,15.21
2018-05-01T18:40:17.736Z,15.11
2018-05-01T18:43:21.101Z,15.01
2018-05-01T18:46:25.403Z,14.93
2018-05-01T18:49:36.730Z,14.74
2018-05-01T18:52:40.035Z,14.53
2018-05-01T18:55:43.251Z,14.32
2018-05-01T18:58:46.631Z,14.14
2018-05-01T19:01:49.933Z,13.93
2018-05-01T19:04:53.787Z,13.77
2018-05-01T19:07:57.143Z,13.65
2018-05-01T19:11:00.442Z,13.47
2018-05-01T19:14:08.357Z,13.36
2018-05-01T19:17:12.605Z,13.23
2018-05-01T19:20:15.868Z,13.01
2018-05-01T19:23:19.112Z,12.85
2018-05-01T19:26:22.292Z,12.49
2018-05-01T19:29:25.549Z,12.58
2018-05-01T19:32:28.850Z,12.57
2018-05-01T19:35:33.903Z,12.58
2018-05-01T19:38:37.124Z,12.50
2018-05-01T19:41:40.488Z,12.56
2018-05-01T19:44:43.896Z,12.65
2018-05-01T19:47:47.207Z,12.72
2018-05-01T19:50:50.597Z,12.76
2018-05-01T19:53:53.822Z,12.69
2018-05-01T19:56:57.115Z,12.48
2018-05-01T20:00:00.491Z,12.26
2018-05-01T20:03:04.125Z,12.07
2018-05-01T20:06:07.419Z,11.85
2018-05-01T20:09:10.703Z,11.68
2018-05-01T20:12:14.015Z,11.58
2018-05-01T20:15:17.296Z,11.47
2018-05-01T20:18:20.499Z,11.38
2018-05-01T20:21:23.864Z,11.46
2018-05-01T20:24:27.203Z,11.32
2018-05-01T20:27:30.405Z,11.40
2018-05-01T20:30:34.926Z,11.39
2018-05-01T20:33:38.179Z,11.45
2018-05-01T20:36:41.575Z,11.45
2018-05-01T20:39:44.877Z,11.40
2018-05-01T20:42:48.176Z,11.36
2018-05-01T20:45:51.592Z,11.41
2018-05-01T20:48:54.788Z,11.46
2018-05-01T20:51:59.107Z,11.43
2018-05-01T20:55:02.382Z,11.47
2018-05-01T20:58:05.648Z,11.50
2018-05-01T21:01:08.899Z,11.49
2018-05-01T21:04:13.223Z,11.39
2018-05-01T21:07:16.570Z,11.42
2018-05-01T21:10:21.593Z,11.34
2018-05-01T21:13:24.732Z,11.17
2018-05-01T21:16:27.971Z,11.23
2018-05-01T21:19:31.152Z,11.26
2018-05-01T21:22:34.367Z,11.28
2018-05-01T21:25:37.619Z,11.19
2018-05-01T21:28:40.921Z,11.29
2018-05-01T21:31:44.207Z,11.37
2018-05-01T21:34:47.521Z,11.42
2018-05-01T21:37:52.785Z,11.46
2018-05-01T21:40:56.047Z,11.40
2018-05-01T21:43:59.358Z,11.39
2018-05-01T21:47:03.672Z,11.38
2018-05-01T21:50:07.038Z,11.29
2018-05-01T21:53:10.178Z,11.19
2018-05-01T21:56:13.463Z,11.15
2018-05-01T21:59:16.756Z,11.01
2018-05-01T22:02:19.972Z,10.89
2018-05-01T22:05:23.873Z,10.78
2018-05-01T22:08:28.186Z,10.74
2018-05-01T22:11:31.507Z,10.63
2018-05-01T22:14:34.724Z,10.62
2018-05-01T22:17:37.917Z,10.41
2018-05-01T22:20:41.197Z,10.23
2018-05-01T22:23:44.468Z,10.09
2018-05-01T22:26:47.762Z,9.95
2018-05-01T22:29:51.091Z,9.82
2018-05-01T22:32:54.330Z,9.75
2018-05-01T22:35:57.595Z,9.62
2018-05-01T22:39:00.847Z,9.61
2018-05-01T22:42:04.167Z,9.65
2018-05-01T22:45:07.417Z,9.56
2018-05-01T22:48:10.639Z,9.50
2018-05-01T22:51:13.936Z,9.48
2018-05-01T22:54:17.265Z,9.48
2018-05-01T22:57:21.221Z,9.44
2018-05-01T23:00:24.492Z,9.45
2018-05-01T23:03:27.763Z,9.33
2018-05-01T23:06:31.059Z,9.31
2018-05-01T23:09:34.405Z,9.29
2018-05-01T23:12:37.644Z,9.26
2018-05-01T23:15:40.938Z,9.36
2018-05-01T23:18:44.231Z,9.39
2018-05-01T23:21:47.536Z,9.49
2018-05-01T23:24:52.921Z,9.65
2018-05-01T23:27:56.155Z,9.75
2018-05-01T23:31:00.396Z,9.75
2018-05-01T23:34:03.724Z,9.75
2018-05-01T23:37:06.939Z,9.77
2018-05-01T23:40:10.209Z,9.81
2018-05-01T23:43:13.428Z,9.84
2018-05-01T23:46:16.615Z,9.70
2018-05-01T23:49:19.872Z,9.53
2018-05-01T23:52:24.160Z,9.29
2018-05-01T23:55:27.388Z,9.11
2018-05-01T23:58:30.718Z,9.09
